createdAt,value
2018-07-27T00:00:34.635Z,27.40
2018-07-27T00:03:03.887Z,27.40
2018-07-27T00:05:33.054Z,27.30
2018-07-27T00:08:02.222Z,27.30
2018-07-27T00:10:31.808Z,27.10
2018-07-27T00:13:01.001Z,27.10
2018-07-27T00:15:30.159Z,27.00
2018-07-27T00:17:59.364Z,27.00
2018-07-27T00:20:28.574Z,27.00
2018-07-27T00:22:57.751Z,26.90
2018-07-27T00:25:26.979Z,26.90
2018-07-27T00:27:56.142Z,26.80
2018-07-27T00:30:25.320Z,26.80
2018-07-27T00:35:23.590Z,26.70
2018-07-27T00:37:52.942Z,26.60
2018-07-27T00:40:22.227Z,26.60
2018-07-27T00:42:51.427Z,26.50
2018-07-27T00:45:20.583Z,26.50
2018-07-27T00:47:49.763Z,26.50
2018-07-27T00:50:18.913Z,26.50
2018-07-27T00:52:48.218Z,26.40
2018-07-27T00:55:17.738Z,26.30
2018-07-27T00:57:46.890Z,26.30
2018-07-27T01:00:16.928Z,26.20
2018-07-27T01:05:15.107Z,26.20
2018-07-27T01:07:44.334Z,26.20
2018-07-27T01:10:13.529Z,26.20
2018-07-27T01:12:42.678Z,26.10
2018-07-27T01:15:12.190Z,26.10
2018-07-27T01:17:41.730Z,25.90
2018-07-27T01:20:10.937Z,25.80
2018-07-27T01:22:40.107Z,25.80
2018-07-27T01:27:38.135Z,25.70
2018-07-27T01:30:08.172Z,25.80
2018-07-27T01:32:37.378Z,25.80
2018-07-27T01:35:06.587Z,25.70
2018-07-27T01:37:36.934Z,25.60
2018-07-27T01:40:06.685Z,25.50
2018-07-27T01:42:35.956Z,25.40
2018-07-27T01:47:34.615Z,25.30
2018-07-27T01:50:03.843Z,25.30
2018-07-27T01:52:32.990Z,25.30
2018-07-27T01:55:02.571Z,25.20
2018-07-27T01:57:31.750Z,25.20
2018-07-27T02:02:30.317Z,25.10
2018-07-27T02:04:59.463Z,25.10
2018-07-27T02:07:28.631Z,25.10
2018-07-27T02:09:57.834Z,25.10
2018-07-27T02:12:27.018Z,25.00
2018-07-27T02:14:56.241Z,25.00
2018-07-27T02:17:25.494Z,24.90
2018-07-27T02:19:54.646Z,24.80
2018-07-27T02:22:23.794Z,24.70
2018-07-27T02:24:53.167Z,24.70
2018-07-27T02:27:22.318Z,24.70
2018-07-27T02:29:51.470Z,24.60
2018-07-27T02:32:20.667Z,24.70
2018-07-27T02:34:49.858Z,24.60
2018-07-27T02:37:18.999Z,24.60
2018-07-27T02:39:48.187Z,24.50
2018-07-27T02:42:17.535Z,24.50
2018-07-27T02:44:46.675Z,24.40
2018-07-27T02:47:15.948Z,24.40
2018-07-27T02:49:45.182Z,24.40
2018-07-27T02:52:14.346Z,24.30
2018-07-27T02:54:43.523Z,24.30
2018-07-27T02:59:41.878Z,24.30
2018-07-27T03:02:11.079Z,24.30
2018-07-27T03:04:40.267Z,24.30
2018-07-27T03:07:10.752Z,24.20
2018-07-27T03:09:42.792Z,24.20
2018-07-27T03:12:11.891Z,24.10
2018-07-27T03:14:41.048Z,24.00
2018-07-27T03:17:10.279Z,24.00
2018-07-27T03:19:39.423Z,23.90
2018-07-27T03:22:08.627Z,23.90
2018-07-27T03:24:37.840Z,23.90
2018-07-27T03:27:07.047Z,23.90
2018-07-27T03:29:36.186Z,23.90
2018-07-27T03:32:05.800Z,23.90
2018-07-27T03:34:34.990Z,23.80
2018-07-27T03:37:04.281Z,23.70
2018-07-27T03:39:33.499Z,23.70
2018-07-27T03:42:02.706Z,23.60
2018-07-27T03:44:31.838Z,23.60
2018-07-27T03:47:01.028Z,23.60
2018-07-27T03:49:30.190Z,23.60
2018-07-27T03:51:59.353Z,23.60
2018-07-27T03:54:28.906Z,23.60
2018-07-27T03:56:58.115Z,23.60
2018-07-27T03:59:27.562Z,23.60
2018-07-27T04:01:56.771Z,23.60
2018-07-27T04:04:26.072Z,23.60
2018-07-27T04:06:55.239Z,23.60
2018-07-27T04:09:24.433Z,23.50
2018-07-27T04:11:53.782Z,23.50
2018-07-27T04:16:52.310Z,23.40
2018-07-27T04:19:21.498Z,23.30
2018-07-27T04:21:50.663Z,23.30
2018-07-27T04:24:19.912Z,23.30
2018-07-27T04:26:49.090Z,23.30
2018-07-27T04:29:18.294Z,23.30
2018-07-27T04:31:47.510Z,23.20
2018-07-27T04:34:16.662Z,23.20
2018-07-27T04:36:45.830Z,23.20
2018-07-27T04:39:15.427Z,23.20
2018-07-27T04:41:44.610Z,23.20
2018-07-27T04:44:13.837Z,23.20
2018-07-27T04:46:43.014Z,23.30
2018-07-27T04:49:12.187Z,23.30
2018-07-27T04:51:41.318Z,23.20
2018-07-27T04:54:10.508Z,23.20
2018-07-27T04:56:39.763Z,23.20
2018-07-27T04:59:08.859Z,23.20
2018-07-27T05:04:07.520Z,23.30
2018-07-27T05:06:36.671Z,23.30
2018-07-27T05:09:12.898Z,23.30
2018-07-27T05:11:42.633Z,23.30
2018-07-27T05:14:12.111Z,23.40
2018-07-27T05:16:41.670Z,23.40
2018-07-27T05:19:10.826Z,23.40
2018-07-27T05:21:40.135Z,23.50
2018-07-27T05:24:09.438Z,23.50
2018-07-27T05:26:38.619Z,23.60
2018-07-27T05:29:07.946Z,23.60
2018-07-27T05:31:37.290Z,23.60
2018-07-27T05:34:06.500Z,23.60
2018-07-27T05:36:35.670Z,23.70
2018-07-27T05:39:08.879Z,23.70
2018-07-27T05:41:38.180Z,23.70
2018-07-27T05:44:07.742Z,23.70
2018-07-27T05:46:37.086Z,23.70
2018-07-27T05:49:06.306Z,23.80
2018-07-27T05:51:35.495Z,23.80
2018-07-27T05:54:04.767Z,23.80
2018-07-27T05:56:34.042Z,23.80
2018-07-27T05:59:03.250Z,23.90
2018-07-27T06:01:32.779Z,23.90
2018-07-27T06:04:02.475Z,23.90
2018-07-27T06:06:31.689Z,24.00
2018-07-27T06:09:01.039Z,24.00
2018-07-27T06:13:59.199Z,24.20
2018-07-27T06:16:28.392Z,24.20
2018-07-27T06:18:57.580Z,24.30
2018-07-27T06:21:26.774Z,24.30
2018-07-27T06:23:56.322Z,24.40
2018-07-27T06:26:25.534Z,24.40
2018-07-27T06:31:23.450Z,24.50
2018-07-27T06:33:52.626Z,24.50
2018-07-27T06:36:21.778Z,24.60
2018-07-27T06:38:50.960Z,24.70
2018-07-27T06:41:20.126Z,24.80
2018-07-27T06:43:49.275Z,24.80
2018-07-27T06:46:18.523Z,24.90
2018-07-27T06:48:47.679Z,25.00
2018-07-27T06:51:16.838Z,25.10
2018-07-27T06:53:46.676Z,25.20
2018-07-27T06:56:15.833Z,25.20
2018-07-27T06:58:45.199Z,25.30
2018-07-27T07:01:14.514Z,25.40
2018-07-27T07:03:43.759Z,25.40
2018-07-27T07:06:14.667Z,25.50
2018-07-27T07:11:13.527Z,25.60
2018-07-27T07:13:42.703Z,25.70
2018-07-27T07:16:14.947Z,25.70
2018-07-27T07:18:45.243Z,25.70
2018-07-27T07:21:14.419Z,25.80
2018-07-27T07:23:43.587Z,25.80
2018-07-27T07:26:13.163Z,25.90
2018-07-27T07:28:42.191Z,26.00
2018-07-27T07:31:12.235Z,26.10
2018-07-27T07:33:42.578Z,26.20
2018-07-27T07:36:12.008Z,26.30
2018-07-27T07:38:41.194Z,26.30
2018-07-27T07:41:10.528Z,26.40
2018-07-27T07:43:40.253Z,26.50
2018-07-27T07:48:39.930Z,26.50
2018-07-27T07:51:09.312Z,26.60
2018-07-27T07:53:39.002Z,26.60
2018-07-27T07:56:08.397Z,26.70
2018-07-27T07:58:38.817Z,26.80
2018-07-27T08:03:36.859Z,26.90
2018-07-27T08:08:37.362Z,27.00
2018-07-27T08:11:06.564Z,27.10
2018-07-27T08:13:35.707Z,27.20
2018-07-27T08:16:05.560Z,27.30
2018-07-27T08:18:34.711Z,27.40
2018-07-27T08:21:03.918Z,27.40
2018-07-27T08:23:33.410Z,27.50
2018-07-27T08:29:05.328Z,27.70
2018-07-27T08:31:34.620Z,27.80
2018-07-27T08:34:04.323Z,27.90
2018-07-27T08:36:35.249Z,28.00
2018-07-27T08:41:36.667Z,28.10
2018-07-27T08:44:06.223Z,28.20
2018-07-27T08:46:35.826Z,28.30
2018-07-27T08:49:05.023Z,28.30
2018-07-27T08:51:34.202Z,28.30
2018-07-27T08:54:03.381Z,28.40
2018-07-27T08:56:33.173Z,28.40
2018-07-27T08:59:02.415Z,28.50
2018-07-27T09:01:31.714Z,28.50
2018-07-27T09:04:01.334Z,28.60
2018-07-27T09:06:31.928Z,28.60
2018-07-27T09:09:01.918Z,28.80
2018-07-27T09:11:31.310Z,28.80
2018-07-27T09:14:00.495Z,28.80
2018-07-27T09:16:29.662Z,28.90
2018-07-27T09:18:59.032Z,28.90
2018-07-27T09:21:28.231Z,29.00
2018-07-27T09:23:57.422Z,29.00
2018-07-27T09:26:27.055Z,29.10
2018-07-27T09:28:56.311Z,29.20
2018-07-27T09:31:25.543Z,29.20
2018-07-27T09:33:55.022Z,29.30
2018-07-27T09:36:24.191Z,29.40
2018-07-27T09:41:22.832Z,29.50
2018-07-27T09:43:51.982Z,29.50
2018-07-27T09:46:21.178Z,29.60
2018-07-27T09:48:53.602Z,29.60
2018-07-27T09:51:25.388Z,29.70
2018-07-27T09:53:54.617Z,29.80
2018-07-27T09:56:24.123Z,29.80
2018-07-27T09:58:53.566Z,29.80
2018-07-27T10:01:26.235Z,29.90
2018-07-27T10:03:55.820Z,29.90
2018-07-27T10:06:25.367Z,30.00
2018-07-27T10:08:54.590Z,30.00
2018-07-27T10:11:23.784Z,30.10
2018-07-27T10:13:52.947Z,30.20
2018-07-27T10:16:22.142Z,30.30
2018-07-27T10:18:51.303Z,30.40
2018-07-27T10:21:20.446Z,30.50
2018-07-27T10:23:50.159Z,30.60
2018-07-27T10:26:19.404Z,30.70
2018-07-27T10:28:48.589Z,30.80
2018-07-27T10:31:17.959Z,30.80
2018-07-27T10:33:47.377Z,30.90
2018-07-27T10:36:17.030Z,30.80
2018-07-27T10:38:46.310Z,30.90
2018-07-27T10:41:15.946Z,31.20
2018-07-27T10:43:45.250Z,31.40
2018-07-27T10:46:14.685Z,31.50
2018-07-27T10:48:43.858Z,31.70
2018-07-27T10:51:13.062Z,31.70
2018-07-27T10:56:11.483Z,31.90
2018-07-27T10:58:40.954Z,32.10
2018-07-27T11:01:10.358Z,32.30
2018-07-27T11:03:39.808Z,32.40
2018-07-27T11:06:08.974Z,32.60
2018-07-27T11:08:39.046Z,32.90
2018-07-27T11:11:08.498Z,33.10
2018-07-27T11:13:37.721Z,33.30
2018-07-27T11:16:06.879Z,33.70
2018-07-27T11:18:36.839Z,34.00
2018-07-27T11:21:06.019Z,34.30
2018-07-27T11:23:35.270Z,34.50
2018-07-27T11:26:04.535Z,35.60
2018-07-27T11:28:33.729Z,37.10
2018-07-27T11:31:03.437Z,38.40
2018-07-27T11:33:33.002Z,39.30
2018-07-27T11:38:31.418Z,40.60
2018-07-27T11:41:00.727Z,41.30
2018-07-27T11:43:30.050Z,42.10
2018-07-27T11:45:59.254Z,42.90
2018-07-27T11:48:28.486Z,43.10
2018-07-27T11:50:57.695Z,43.40
2018-07-27T11:53:27.566Z,43.90
2018-07-27T11:55:56.814Z,44.20
2018-07-27T11:58:26.384Z,43.90
2018-07-27T12:00:55.722Z,42.30
2018-07-27T12:03:24.871Z,40.80
2018-07-27T12:05:54.300Z,39.50
2018-07-27T12:08:23.512Z,38.40
2018-07-27T12:10:52.938Z,37.70
2018-07-27T12:13:22.182Z,37.80
2018-07-27T12:15:51.755Z,39.50
2018-07-27T12:18:21.343Z,41.10
2018-07-27T12:20:50.572Z,42.40
2018-07-27T12:23:19.994Z,43.60
2018-07-27T12:25:49.207Z,44.40
2018-07-27T12:28:18.338Z,45.10
2018-07-27T12:30:47.927Z,45.40
2018-07-27T12:33:18.170Z,45.70
2018-07-27T12:35:47.736Z,45.70
2018-07-27T12:38:17.410Z,45.70
2018-07-27T12:40:46.663Z,45.90
2018-07-27T12:43:15.937Z,46.40
2018-07-27T12:45:45.183Z,47.00
2018-07-27T12:48:14.528Z,47.40
2018-07-27T12:50:44.747Z,47.60
2018-07-27T12:53:13.963Z,47.40
2018-07-27T12:55:43.156Z,47.60
2018-07-27T12:58:12.290Z,48.20
2018-07-27T13:00:41.619Z,48.50
2018-07-27T13:03:10.943Z,48.50
2018-07-27T13:05:40.195Z,48.70
2018-07-27T13:08:09.591Z,48.90
2018-07-27T13:10:39.682Z,49.20
2018-07-27T13:13:09.131Z,49.50
2018-07-27T13:15:38.327Z,49.70
2018-07-27T13:18:07.779Z,49.90
2018-07-27T13:20:47.154Z,50.00
2018-07-27T13:23:16.351Z,50.10
2018-07-27T13:28:25.823Z,50.20
2018-07-27T13:30:55.175Z,50.40
2018-07-27T13:33:24.424Z,50.70
2018-07-27T13:35:53.641Z,50.90
2018-07-27T13:38:22.801Z,51.10
2018-07-27T13:40:52.239Z,51.10
2018-07-27T13:43:21.399Z,51.20
2018-07-27T13:45:50.574Z,51.40
2018-07-27T13:48:20.199Z,51.10
2018-07-27T13:50:49.507Z,51.10
2018-07-27T13:53:19.983Z,51.20
2018-07-27T13:55:50.204Z,51.30
2018-07-27T13:58:19.530Z,51.10
2018-07-27T14:00:48.686Z,51.00
2018-07-27T14:03:18.706Z,50.20
2018-07-27T14:05:48.263Z,49.60
2018-07-27T14:08:18.602Z,49.90
2018-07-27T14:10:48.526Z,50.00
2018-07-27T14:13:17.798Z,50.60
2018-07-27T14:15:48.011Z,51.30
2018-07-27T14:18:17.239Z,51.80
2018-07-27T14:23:15.293Z,52.20
2018-07-27T14:25:44.531Z,52.40
2018-07-27T14:30:42.579Z,52.90
2018-07-27T14:33:11.907Z,52.80
2018-07-27T14:35:41.082Z,52.50
2018-07-27T14:38:10.508Z,51.50
2018-07-27T14:40:40.188Z,51.50
2018-07-27T14:43:09.415Z,52.10
2018-07-27T14:45:38.658Z,52.40
2018-07-27T14:48:08.315Z,52.10
2018-07-27T14:50:37.501Z,52.00
2018-07-27T14:53:07.454Z,52.00
2018-07-27T14:58:06.589Z,52.30
2018-07-27T15:00:35.751Z,52.50
2018-07-27T15:03:05.063Z,52.60
2018-07-27T15:05:34.614Z,52.70
2018-07-27T15:08:03.940Z,52.50
2018-07-27T15:10:35.669Z,52.30
2018-07-27T15:13:04.925Z,52.40
2018-07-27T15:15:35.201Z,52.40
2018-07-27T15:18:04.401Z,52.40
2018-07-27T15:20:33.559Z,52.40
2018-07-27T15:23:03.514Z,52.60
2018-07-27T15:25:32.988Z,52.40
2018-07-27T15:28:03.053Z,52.00
2018-07-27T15:30:32.548Z,52.20
2018-07-27T15:33:03.347Z,52.40
2018-07-27T15:35:32.730Z,52.00
2018-07-27T15:38:03.258Z,51.70
2018-07-27T15:40:32.490Z,52.00
2018-07-27T15:43:01.646Z,52.20
2018-07-27T15:45:31.186Z,52.40
2018-07-27T15:48:00.378Z,52.50
2018-07-27T15:52:59.938Z,52.90
2018-07-27T15:55:29.283Z,52.90
2018-07-27T15:57:58.474Z,52.80
2018-07-27T16:00:27.903Z,52.70
2018-07-27T16:02:57.071Z,52.30
2018-07-27T16:05:26.415Z,52.20
2018-07-27T16:07:55.708Z,52.00
2018-07-27T16:10:24.884Z,51.50
2018-07-27T16:12:54.456Z,51.20
2018-07-27T16:15:24.237Z,51.00
2018-07-27T16:17:54.273Z,50.60
2018-07-27T16:20:23.478Z,50.30
2018-07-27T16:22:52.878Z,50.30
2018-07-27T16:25:22.180Z,50.30
2018-07-27T16:27:51.381Z,50.10
2018-07-27T16:30:20.730Z,50.10
2018-07-27T16:32:49.958Z,50.20
2018-07-27T16:35:19.318Z,50.20
2018-07-27T16:37:48.861Z,50.00
2018-07-27T16:40:18.081Z,49.90
2018-07-27T16:42:47.538Z,49.60
2018-07-27T16:45:16.723Z,49.10
2018-07-27T16:47:46.083Z,48.90
2018-07-27T16:50:15.490Z,48.90
2018-07-27T16:52:44.680Z,48.70
2018-07-27T16:55:13.846Z,48.40
2018-07-27T16:57:43.081Z,48.30
2018-07-27T17:00:13.483Z,47.90
2018-07-27T17:02:42.966Z,47.60
2018-07-27T17:05:12.153Z,47.40
2018-07-27T17:07:41.634Z,47.00
2018-07-27T17:10:10.787Z,46.70
2018-07-27T17:12:40.075Z,46.70
2018-07-27T17:15:09.317Z,46.70
2018-07-27T17:17:38.662Z,46.70
2018-07-27T17:20:08.379Z,46.50
2018-07-27T17:22:39.347Z,46.50
2018-07-27T17:25:08.766Z,46.30
2018-07-27T17:27:38.130Z,46.10
2018-07-27T17:30:08.376Z,45.80
2018-07-27T17:32:38.098Z,45.60
2018-07-27T17:35:07.287Z,45.40
2018-07-27T17:37:37.586Z,45.40
2018-07-27T17:40:07.892Z,45.30
2018-07-27T17:42:39.349Z,45.10
2018-07-27T17:45:09.054Z,44.90
2018-07-27T17:47:38.556Z,44.80
2018-07-27T17:50:07.893Z,44.60
2018-07-27T17:52:37.243Z,44.40
2018-07-27T17:55:06.487Z,44.20
2018-07-27T17:57:35.819Z,43.90
2018-07-27T18:00:05.735Z,43.60
2018-07-27T18:02:34.894Z,43.00
2018-07-27T18:05:06.074Z,42.20
2018-07-27T18:07:36.482Z,41.50
2018-07-27T18:10:05.563Z,40.80
2018-07-27T18:12:34.943Z,40.40
2018-07-27T18:15:04.812Z,40.00
2018-07-27T18:17:34.047Z,39.50
2018-07-27T18:20:03.650Z,39.20
2018-07-27T18:22:32.802Z,39.00
2018-07-27T18:25:02.129Z,38.70
2018-07-27T18:27:31.906Z,38.50
2018-07-27T18:30:01.115Z,38.20
2018-07-27T18:32:32.438Z,38.10
2018-07-27T18:35:01.767Z,38.00
2018-07-27T18:37:32.290Z,37.80
2018-07-27T18:40:02.898Z,37.60
2018-07-27T18:42:32.141Z,37.50
2018-07-27T18:45:01.383Z,37.30
2018-07-27T18:47:30.916Z,37.20
2018-07-27T18:50:01.171Z,37.00
2018-07-27T18:52:30.462Z,36.80
2018-07-27T18:54:59.862Z,36.60
2018-07-27T18:57:29.010Z,36.50
2018-07-27T18:59:58.186Z,36.30
2018-07-27T19:02:27.595Z,36.20
2018-07-27T19:04:56.747Z,36.10
2018-07-27T19:07:26.296Z,35.90
2018-07-27T19:09:55.850Z,35.80
2018-07-27T19:12:25.031Z,35.70
2018-07-27T19:14:54.550Z,35.60
2018-07-27T19:17:23.778Z,35.40
2018-07-27T19:19:52.957Z,35.40
2018-07-27T19:22:26.139Z,35.20
2018-07-27T19:24:55.622Z,35.10
2018-07-27T19:29:54.451Z,34.90
2018-07-27T19:32:23.878Z,34.80
2018-07-27T19:34:53.246Z,34.70
2018-07-27T19:37:22.551Z,34.50
2018-07-27T19:39:51.823Z,34.50
2018-07-27T19:42:21.026Z,34.30
2018-07-27T19:44:50.402Z,34.20
2018-07-27T19:47:19.558Z,34.00
2018-07-27T19:49:48.743Z,33.90
2018-07-27T19:52:18.276Z,33.70
2018-07-27T19:54:47.515Z,33.60
2018-07-27T19:57:17.054Z,33.50
2018-07-27T19:59:46.571Z,33.40
2018-07-27T20:02:15.899Z,33.30
2018-07-27T20:04:45.187Z,33.20
2018-07-27T20:07:15.928Z,33.10
2018-07-27T20:09:45.059Z,33.00
2018-07-27T20:12:14.254Z,32.90
2018-07-27T20:14:45.411Z,32.80
2018-07-27T20:17:14.612Z,32.70
2018-07-27T20:19:43.775Z,32.60
2018-07-27T20:22:14.266Z,32.60
2018-07-27T20:24:43.555Z,32.60
2018-07-27T20:27:12.694Z,32.50
2018-07-27T20:29:41.907Z,32.40
2018-07-27T20:32:11.132Z,32.40
2018-07-27T20:34:40.362Z,32.40
2018-07-27T20:37:09.955Z,32.20
2018-07-27T20:39:39.303Z,32.20
2018-07-27T20:42:08.654Z,32.20
2018-07-27T20:44:38.099Z,32.10
2018-07-27T20:47:07.306Z,32.00
2018-07-27T20:49:36.478Z,31.90
2018-07-27T20:52:06.087Z,31.80
2018-07-27T20:54:35.447Z,31.70
2018-07-27T20:57:04.876Z,31.60
2018-07-27T20:59:34.306Z,31.60
2018-07-27T21:02:03.583Z,31.50
2018-07-27T21:04:32.897Z,31.40
2018-07-27T21:07:02.397Z,31.40
2018-07-27T21:09:31.606Z,31.30
2018-07-27T21:12:00.802Z,31.20
2018-07-27T21:14:29.988Z,31.10
2018-07-27T21:16:59.395Z,31.10
2018-07-27T21:19:28.562Z,31.00
2018-07-27T21:21:58.008Z,30.90
2018-07-27T21:24:27.770Z,30.80
2018-07-27T21:26:57.107Z,30.70
2018-07-27T21:29:26.602Z,30.60
2018-07-27T21:31:56.618Z,30.50
2018-07-27T21:34:25.886Z,30.40
2018-07-27T21:36:55.087Z,30.40
2018-07-27T21:39:24.429Z,30.30
2018-07-27T21:41:53.594Z,30.20
2018-07-27T21:46:52.519Z,30.10
2018-07-27T21:49:21.715Z,30.00
2018-07-27T21:51:50.924Z,29.90
2018-07-27T21:54:20.419Z,29.80
2018-07-27T21:56:49.799Z,29.80
2018-07-27T21:59:19.022Z,29.70
2018-07-27T22:01:48.468Z,29.60
2018-07-27T22:04:18.009Z,29.60
2018-07-27T22:06:47.598Z,29.50
2018-07-27T22:09:16.782Z,29.50
2018-07-27T22:11:45.942Z,29.40
2018-07-27T22:14:15.239Z,29.30
2018-07-27T22:16:44.814Z,29.20
2018-07-27T22:19:14.056Z,29.10
2018-07-27T22:21:43.295Z,29.10
2018-07-27T22:24:12.463Z,29.00
2018-07-27T22:26:41.739Z,29.00
2018-07-27T22:29:11.258Z,28.90
2018-07-27T22:31:40.451Z,28.80
2018-07-27T22:34:09.594Z,28.80
2018-07-27T22:36:38.878Z,28.80
2018-07-27T22:39:09.371Z,28.70
2018-07-27T22:44:07.762Z,28.30
2018-07-27T22:46:37.058Z,28.20
2018-07-27T22:49:06.227Z,28.10
2018-07-27T22:51:35.462Z,28.10
2018-07-27T22:54:04.635Z,28.10
2018-07-27T22:56:33.790Z,28.10
2018-07-27T22:59:03.070Z,28.20
2018-07-27T23:01:32.307Z,28.20
2018-07-27T23:04:01.558Z,28.10
2018-07-27T23:06:30.867Z,28.00
2018-07-27T23:09:00.170Z,27.90
2018-07-27T23:11:29.424Z,27.90
2018-07-27T23:13:58.975Z,27.80
2018-07-27T23:16:28.147Z,27.70
2018-07-27T23:18:57.659Z,27.60
2018-07-27T23:21:26.883Z,27.50
2018-07-27T23:23:56.067Z,27.50
2018-07-27T23:26:25.271Z,27.50
2018-07-27T23:28:54.455Z,27.50
2018-07-27T23:31:23.674Z,27.40
2018-07-27T23:33:53.084Z,27.40
2018-07-27T23:36:22.384Z,27.30
2018-07-27T23:38:51.759Z,27.30
2018-07-27T23:41:20.971Z,27.20
2018-07-27T23:43:50.339Z,27.20
2018-07-27T23:46:19.547Z,27.10
2018-07-27T23:48:48.724Z,27.10
2018-07-27T23:51:17.924Z,27.00
2018-07-27T23:53:47.086Z,26.90
2018-07-27T23:56:16.272Z,26.80
2018-07-27T23:58:45.831Z,26.70
